sensor_id;sensor_type;location;lat;lon;timestamp;pressure;altitude;pressure_sealevel;temperature
78961;BMP280;68362;45.970;12.646;2024-03-17T00:00:38;101719.97;;;9.29
78961;BMP280;68362;45.970;12.646;2024-03-17T00:02:03;101717.38;;;9.29
78961;BMP280;68362;45.970;12.646;2024-03-17T00:03:04;101727.78;;;9.59
78961;BMP280;68362;45.970;12.646;2024-03-17T00:04:05;101722.69;;;9.72
78961;BMP280;68362;45.970;12.646;2024-03-17T00:05:07;101720.19;;;9.64
78961;BMP280;68362;45.970;12.646;2024-03-17T00:06:08;101720.09;;;9.72
78961;BMP280;68362;45.970;12.646;2024-03-17T00:07:09;101722.00;;;9.49
78961;BMP280;68362;45.970;12.646;2024-03-17T00:08:10;101723.56;;;9.43
78961;BMP280;68362;45.970;12.646;2024-03-17T00:09:11;101725.09;;;9.38
78961;BMP280;68362;45.970;12.646;2024-03-17T00:10:12;101725.28;;;9.51
78961;BMP280;68362;45.970;12.646;2024-03-17T00:11:13;101726.53;;;9.40
78961;BMP280;68362;45.970;12.646;2024-03-17T00:12:14;101722.59;;;9.44
78961;BMP280;68362;45.970;12.646;2024-03-17T00:13:15;101723.03;;;9.48
78961;BMP280;68362;45.970;12.646;2024-03-17T00:14:17;101726.16;;;9.58
78961;BMP280;68362;45.970;12.646;2024-03-17T00:15:19;101721.13;;;9.57
78961;BMP280;68362;45.970;12.646;2024-03-17T00:16:19;101729.31;;;9.68
78961;BMP280;68362;45.970;12.646;2024-03-17T00:17:20;101721.34;;;9.76
78961;BMP280;68362;45.970;12.646;2024-03-17T00:18:22;101725.59;;;9.77
78961;BMP280;68362;45.970;12.646;2024-03-17T00:19:25;101721.34;;;9.76
78961;BMP280;68362;45.970;12.646;2024-03-17T00:20:26;101718.06;;;9.74
78961;BMP280;68362;45.970;12.646;2024-03-17T00:21:28;101729.69;;;9.65
78961;BMP280;68362;45.970;12.646;2024-03-17T00:22:29;101719.91;;;9.59
78961;BMP280;68362;45.970;12.646;2024-03-17T00:23:31;101722.84;;;9.35
78961;BMP280;68362;45.970;12.646;2024-03-17T00:24:32;101726.81;;;9.45
78961;BMP280;68362;45.970;12.646;2024-03-17T00:25:35;101716.84;;;8.82
78961;BMP280;68362;45.970;12.646;2024-03-17T00:26:36;101725.09;;;8.93
78961;BMP280;68362;45.970;12.646;2024-03-17T00:27:37;101717.59;;;9.05
78961;BMP280;68362;45.970;12.646;2024-03-17T00:28:41;101733.16;;;9.21
78961;BMP280;68362;45.970;12.646;2024-03-17T00:29:42;101722.09;;;9.41
78961;BMP280;68362;45.970;12.646;2024-03-17T00:30:43;101718.88;;;9.39
78961;BMP280;68362;45.970;12.646;2024-03-17T00:31:44;101718.59;;;9.34
78961;BMP280;68362;45.970;12.646;2024-03-17T00:32:45;101725.03;;;9.16
78961;BMP280;68362;45.970;12.646;2024-03-17T00:33:46;101721.13;;;8.97
78961;BMP280;68362;45.970;12.646;2024-03-17T00:34:47;101728.47;;;9.17
78961;BMP280;68362;45.970;12.646;2024-03-17T00:35:48;101723.09;;;8.95
78961;BMP280;68362;45.970;12.646;2024-03-17T00:36:49;101720.66;;;8.79
78961;BMP280;68362;45.970;12.646;2024-03-17T00:37:50;101724.72;;;8.96
78961;BMP280;68362;45.970;12.646;2024-03-17T00:38:51;101722.91;;;8.82
78961;BMP280;68362;45.970;12.646;2024-03-17T00:39:55;101725.91;;;8.94
78961;BMP280;68362;45.970;12.646;2024-03-17T00:40:56;101724.69;;;8.82
78961;BMP280;68362;45.970;12.646;2024-03-17T00:41:57;101729.63;;;8.99
78961;BMP280;68362;45.970;12.646;2024-03-17T00:42:58;101726.75;;;9.09
78961;BMP280;68362;45.970;12.646;2024-03-17T00:43:59;101727.84;;;9.15
78961;BMP280;68362;45.970;12.646;2024-03-17T00:45:01;101725.47;;;9.35
78961;BMP280;68362;45.970;12.646;2024-03-17T00:46:03;101722.84;;;9.35
78961;BMP280;68362;45.970;12.646;2024-03-17T00:47:04;101726.19;;;9.28
78961;BMP280;68362;45.970;12.646;2024-03-17T00:48:05;101724.81;;;9.47
78961;BMP280;68362;45.970;12.646;2024-03-17T00:49:10;101725.44;;;9.49
78961;BMP280;68362;45.970;12.646;2024-03-17T00:50:11;101726.19;;;9.43
78961;BMP280;68362;45.970;12.646;2024-03-17T00:51:12;101722.47;;;9.38
78961;BMP280;68362;45.970;12.646;2024-03-17T00:52:13;101721.59;;;9.31
78961;BMP280;68362;45.970;12.646;2024-03-17T00:53:15;101728.66;;;9.15
78961;BMP280;68362;45.970;12.646;2024-03-17T00:54:16;101727.00;;;9.14
78961;BMP280;68362;45.970;12.646;2024-03-17T00:55:18;101725.09;;;9.08
78961;BMP280;68362;45.970;12.646;2024-03-17T00:56:19;101725.72;;;9.10
78961;BMP280;68362;45.970;12.646;2024-03-17T00:57:20;101723.94;;;9.25
78961;BMP280;68362;45.970;12.646;2024-03-17T00:58:22;101724.38;;;9.14
78961;BMP280;68362;45.970;12.646;2024-03-17T00:59:22;101719.50;;;8.96
78961;BMP280;68362;45.970;12.646;2024-03-17T01:00:23;101713.16;;;8.91
78961;BMP280;68362;45.970;12.646;2024-03-17T01:01:24;101714.72;;;9.00
78961;BMP280;68362;45.970;12.646;2024-03-17T01:02:26;101708.75;;;8.91
78961;BMP280;68362;45.970;12.646;2024-03-17T01:03:27;101708.78;;;9.06
78961;BMP280;68362;45.970;12.646;2024-03-17T01:04:28;101704.06;;;9.16
78961;BMP280;68362;45.970;12.646;2024-03-17T01:05:29;101711.41;;;9.21
78961;BMP280;68362;45.970;12.646;2024-03-17T01:06:31;101708.38;;;9.39
78961;BMP280;68362;45.970;12.646;2024-03-17T01:07:33;101706.31;;;9.34
78961;BMP280;68362;45.970;12.646;2024-03-17T01:08:34;101703.88;;;9.33
78961;BMP280;68362;45.970;12.646;2024-03-17T01:09:35;101706.22;;;9.42
78961;BMP280;68362;45.970;12.646;2024-03-17T01:10:38;101704.75;;;9.40
78961;BMP280;68362;45.970;12.646;2024-03-17T01:11:39;101705.41;;;9.42
78961;BMP280;68362;45.970;12.646;2024-03-17T01:12:40;101708.84;;;9.13
78961;BMP280;68362;45.970;12.646;2024-03-17T01:13:41;101701.78;;;8.69
78961;BMP280;68362;45.970;12.646;2024-03-17T01:14:43;101706.59;;;8.80
78961;BMP280;68362;45.970;12.646;2024-03-17T01:15:44;101705.22;;;8.84
78961;BMP280;68362;45.970;12.646;2024-03-17T01:16:45;101711.63;;;9.11
78961;BMP280;68362;45.970;12.646;2024-03-17T01:17:46;101714.19;;;9.19
78961;BMP280;68362;45.970;12.646;2024-03-17T01:18:47;101711.41;;;9.21
78961;BMP280;68362;45.970;12.646;2024-03-17T01:19:49;101714.19;;;9.19
78961;BMP280;68362;45.970;12.646;2024-03-17T01:20:49;101712.94;;;9.15
78961;BMP280;68362;45.970;12.646;2024-03-17T01:21:50;101705.69;;;8.88
78961;BMP280;68362;45.970;12.646;2024-03-17T01:22:51;101707.31;;;8.89
78961;BMP280;68362;45.970;12.646;2024-03-17T01:23:53;101702.06;;;8.74
78961;BMP280;68362;45.970;12.646;2024-03-17T01:24:54;101703.28;;;8.48
78961;BMP280;68362;45.970;12.646;2024-03-17T01:25:54;101706.34;;;8.29
78961;BMP280;68362;45.970;12.646;2024-03-17T01:26:56;101707.84;;;8.46
78961;BMP280;68362;45.970;12.646;2024-03-17T01:27:57;101701.75;;;8.54
78961;BMP280;68362;45.970;12.646;2024-03-17T01:28:58;101706.41;;;8.59
78961;BMP280;68362;45.970;12.646;2024-03-17T01:29:58;101706.25;;;8.60
78961;BMP280;68362;45.970;12.646;2024-03-17T01:31:00;101705.59;;;8.58
78961;BMP280;68362;45.970;12.646;2024-03-17T01:32:00;101704.94;;;8.64
78961;BMP280;68362;45.970;12.646;2024-03-17T01:33:01;101703.59;;;8.83
78961;BMP280;68362;45.970;12.646;2024-03-17T01:34:02;101710.53;;;8.91
78961;BMP280;68362;45.970;12.646;2024-03-17T01:35:04;101709.00;;;9.11
78961;BMP280;68362;45.970;12.646;2024-03-17T01:36:06;101709.38;;;8.93
78961;BMP280;68362;45.970;12.646;2024-03-17T01:37:08;101707.91;;;8.76
78961;BMP280;68362;45.970;12.646;2024-03-17T01:38:09;101710.66;;;8.45
78961;BMP280;68362;45.970;12.646;2024-03-17T01:39:11;101708.03;;;8.45
78961;BMP280;68362;45.970;12.646;2024-03-17T01:40:12;101714.50;;;8.57
78961;BMP280;68362;45.970;12.646;2024-03-17T01:41:13;101714.28;;;8.59
78961;BMP280;68362;45.970;12.646;2024-03-17T01:42:15;101715.69;;;8.84
78961;BMP280;68362;45.970;12.646;2024-03-17T01:43:16;101716.94;;;8.88
78961;BMP280;68362;45.970;12.646;2024-03-17T01:44:37;101718.88;;;8.80
78961;BMP280;68362;45.970;12.646;2024-03-17T01:45:38;101719.41;;;7.83
78961;BMP280;68362;45.970;12.646;2024-03-17T01:46:39;101711.31;;;7.22
78961;BMP280;68362;45.970;12.646;2024-03-17T01:47:40;101715.34;;;7.81
78961;BMP280;68362;45.970;12.646;2024-03-17T01:48:42;101710.81;;;7.97
78961;BMP280;68362;45.970;12.646;2024-03-17T01:49:47;101717.16;;;8.26
78961;BMP280;68362;45.970;12.646;2024-03-17T01:50:52;101710.66;;;8.22
78961;BMP280;68362;45.970;12.646;2024-03-17T01:51:54;101711.84;;;8.19
78961;BMP280;68362;45.970;12.646;2024-03-17T01:52:57;101715.31;;;8.35
78961;BMP280;68362;45.970;12.646;2024-03-17T01:54:00;101710.75;;;8.06
78961;BMP280;68362;45.970;12.646;2024-03-17T01:55:02;101716.34;;;8.25
78961;BMP280;68362;45.970;12.646;2024-03-17T01:56:04;101711.84;;;8.19
78961;BMP280;68362;45.970;12.646;2024-03-17T01:57:05;101710.53;;;8.15
78961;BMP280;68362;45.970;12.646;2024-03-17T01:58:06;101710.13;;;8.26
78961;BMP280;68362;45.970;12.646;2024-03-17T01:59:10;101713.97;;;8.39
78961;BMP280;68362;45.970;12.646;2024-03-17T02:00:12;101712.75;;;8.26
78961;BMP280;68362;45.970;12.646;2024-03-17T02:01:14;101712.28;;;8.46
78961;BMP280;68362;45.970;12.646;2024-03-17T02:02:15;101711.94;;;8.49
78961;BMP280;68362;45.970;12.646;2024-03-17T02:03:16;101704.69;;;8.51
78961;BMP280;68362;45.970;12.646;2024-03-17T02:04:17;101706.19;;;8.68
78961;BMP280;68362;45.970;12.646;2024-03-17T02:05:18;101705.22;;;8.46
78961;BMP280;68362;45.970;12.646;2024-03-17T02:06:19;101704.53;;;8.52
78961;BMP280;68362;45.970;12.646;2024-03-17T02:07:20;101704.31;;;8.39
78961;BMP280;68362;45.970;12.646;2024-03-17T02:08:21;101702.41;;;8.33
78961;BMP280;68362;45.970;12.646;2024-03-17T02:09:23;101708.31;;;8.50
78961;BMP280;68362;45.970;12.646;2024-03-17T02:10:23;101706.69;;;8.49
78961;BMP280;68362;45.970;12.646;2024-03-17T02:11:29;101708.75;;;8.39
78961;BMP280;68362;45.970;12.646;2024-03-17T02:12:31;101701.88;;;8.15
78961;BMP280;68362;45.970;12.646;2024-03-17T02:13:33;101700.72;;;8.40
78961;BMP280;68362;45.970;12.646;2024-03-17T02:14:34;101698.19;;;8.47
78961;BMP280;68362;45.970;12.646;2024-03-17T02:15:35;101695.31;;;8.42
78961;BMP280;68362;45.970;12.646;2024-03-17T02:16:37;101702.56;;;8.32
78961;BMP280;68362;45.970;12.646;2024-03-17T02:17:38;101696.44;;;8.24
78961;BMP280;68362;45.970;12.646;2024-03-17T02:18:39;101702.75;;;8.30
78961;BMP280;68362;45.970;12.646;2024-03-17T02:19:40;101701.25;;;8.36
78961;BMP280;68362;45.970;12.646;2024-03-17T02:20:41;101705.69;;;8.50
78961;BMP280;68362;45.970;12.646;2024-03-17T02:22:00;101707.81;;;8.69
78961;BMP280;68362;45.970;12.646;2024-03-17T02:23:00;101701.69;;;8.62
78961;BMP280;68362;45.970;12.646;2024-03-17T02:24:01;101707.97;;;8.30
78961;BMP280;68362;45.970;12.646;2024-03-17T02:25:03;101710.59;;;8.30
78961;BMP280;68362;45.970;12.646;2024-03-17T02:26:04;101702.47;;;8.25
78961;BMP280;68362;45.970;12.646;2024-03-17T02:27:05;101699.84;;;8.25
78961;BMP280;68362;45.970;12.646;2024-03-17T02:28:06;101711.66;;;8.21
78961;BMP280;68362;45.970;12.646;2024-03-17T02:29:07;101704.41;;;8.46
78961;BMP280;68362;45.970;12.646;2024-03-17T02:30:08;101708.16;;;8.66
78961;BMP280;68362;45.970;12.646;2024-03-17T02:31:13;101708.06;;;8.60
78961;BMP280;68362;45.970;12.646;2024-03-17T02:32:14;101702.16;;;8.66
78961;BMP280;68362;45.970;12.646;2024-03-17T02:33:16;101718.47;;;8.68
78961;BMP280;68362;45.970;12.646;2024-03-17T02:34:17;101718.28;;;8.69
78961;BMP280;68362;45.970;12.646;2024-03-17T02:35:18;101710.25;;;8.56
78961;BMP280;68362;45.970;12.646;2024-03-17T02:36:19;101708.13;;;8.29
78961;BMP280;68362;45.970;12.646;2024-03-17T02:37:20;101714.03;;;8.31
78961;BMP280;68362;45.970;12.646;2024-03-17T02:38:21;101716.00;;;8.29
78961;BMP280;68362;45.970;12.646;2024-03-17T02:39:40;101720.34;;;8.36
78961;BMP280;68362;45.970;12.646;2024-03-17T02:40:41;101719.53;;;8.36
78961;BMP280;68362;45.970;12.646;2024-03-17T02:41:43;101723.59;;;8.38
78961;BMP280;68362;45.970;12.646;2024-03-17T02:42:44;101717.81;;;8.28
78961;BMP280;68362;45.970;12.646;2024-03-17T02:43:46;101722.41;;;8.26
78961;BMP280;68362;45.970;12.646;2024-03-17T02:44:47;101722.84;;;8.30
78961;BMP280;68362;45.970;12.646;2024-03-17T02:45:48;101721.94;;;8.45
78961;BMP280;68362;45.970;12.646;2024-03-17T02:46:49;101722.28;;;8.65
78961;BMP280;68362;45.970;12.646;2024-03-17T02:47:50;101725.88;;;8.79
78961;BMP280;68362;45.970;12.646;2024-03-17T02:48:52;101717.88;;;8.43
78961;BMP280;68362;45.970;12.646;2024-03-17T02:49:54;101723.09;;;8.20
78961;BMP280;68362;45.970;12.646;2024-03-17T02:50:55;101721.16;;;8.37
78961;BMP280;68362;45.970;12.646;2024-03-17T02:51:56;101717.59;;;8.30
78961;BMP280;68362;45.970;12.646;2024-03-17T02:52:58;101716.47;;;8.09
78961;BMP280;68362;45.970;12.646;2024-03-17T02:53:59;101716.88;;;8.21
78961;BMP280;68362;45.970;12.646;2024-03-17T02:55:00;101718.16;;;8.25
78961;BMP280;68362;45.970;12.646;2024-03-17T02:56:01;101728.44;;;8.26
78961;BMP280;68362;45.970;12.646;2024-03-17T02:57:03;101715.31;;;8.35
78961;BMP280;68362;45.970;12.646;2024-03-17T02:58:04;101705.84;;;8.34
78961;BMP280;68362;45.970;12.646;2024-03-17T02:59:07;101709.50;;;8.47
78961;BMP280;68362;45.970;12.646;2024-03-17T03:00:08;101709.94;;;8.51
78961;BMP280;68362;45.970;12.646;2024-03-17T03:01:13;101705.53;;;8.29
78961;BMP280;68362;45.970;12.646;2024-03-17T03:02:18;101710.41;;;8.32
78961;BMP280;68362;45.970;12.646;2024-03-17T03:03:18;101705.97;;;8.55
78961;BMP280;68362;45.970;12.646;2024-03-17T03:04:20;101709.78;;;8.67
78961;BMP280;68362;45.970;12.646;2024-03-17T03:05:21;101717.63;;;8.67
78961;BMP280;68362;45.970;12.646;2024-03-17T03:06:22;101708.63;;;8.70
78961;BMP280;68362;45.970;12.646;2024-03-17T03:07:25;101716.50;;;8.85
78961;BMP280;68362;45.970;12.646;2024-03-17T03:08:27;101712.66;;;8.81
78961;BMP280;68362;45.970;12.646;2024-03-17T03:09:27;101706.19;;;8.68
78961;BMP280;68362;45.970;12.646;2024-03-17T03:10:32;101708.28;;;8.73
78961;BMP280;68362;45.970;12.646;2024-03-17T03:11:36;101712.00;;;8.78
78961;BMP280;68362;45.970;12.646;2024-03-17T03:12:36;101699.31;;;8.67
78961;BMP280;68362;45.970;12.646;2024-03-17T03:13:41;101702.31;;;8.64
78961;BMP280;68362;45.970;12.646;2024-03-17T03:14:43;101706.94;;;8.77
78961;BMP280;68362;45.970;12.646;2024-03-17T03:15:46;101704.19;;;8.70
78961;BMP280;68362;45.970;12.646;2024-03-17T03:16:47;101708.31;;;8.88
78961;BMP280;68362;45.970;12.646;2024-03-17T03:17:48;101713.00;;;8.92
78961;BMP280;68362;45.970;12.646;2024-03-17T03:18:50;101716.00;;;8.66
78961;BMP280;68362;45.970;12.646;2024-03-17T03:19:51;101709.38;;;8.78
78961;BMP280;68362;45.970;12.646;2024-03-17T03:20:52;101717.03;;;8.65
78961;BMP280;68362;45.970;12.646;2024-03-17T03:21:53;101704.13;;;8.64
78961;BMP280;68362;45.970;12.646;2024-03-17T03:22:54;101698.50;;;8.67
78961;BMP280;68362;45.970;12.646;2024-03-17T03:23:55;101696.44;;;8.62
78961;BMP280;68362;45.970;12.646;2024-03-17T03:24:56;101702.06;;;8.74
78961;BMP280;68362;45.970;12.646;2024-03-17T03:26:02;101687.94;;;8.60
78961;BMP280;68362;45.970;12.646;2024-03-17T03:27:04;101705.78;;;8.42
78961;BMP280;68362;45.970;12.646;2024-03-17T03:28:05;101700.78;;;8.09
78961;BMP280;68362;45.970;12.646;2024-03-17T03:29:06;101698.34;;;8.08
78961;BMP280;68362;45.970;12.646;2024-03-17T03:30:07;101697.94;;;8.42
78961;BMP280;68362;45.970;12.646;2024-03-17T03:31:11;101699.22;;;8.61
78961;BMP280;68362;45.970;12.646;2024-03-17T03:32:14;101701.78;;;8.69
78961;BMP280;68362;45.970;12.646;2024-03-17T03:33:15;101698.59;;;8.73
78961;BMP280;68362;45.970;12.646;2024-03-17T03:34:15;101696.69;;;8.67
78961;BMP280;68362;45.970;12.646;2024-03-17T03:35:17;101697.56;;;8.45
78961;BMP280;68362;45.970;12.646;2024-03-17T03:36:18;101698.09;;;8.17
78961;BMP280;68362;45.970;12.646;2024-03-17T03:37:19;101691.47;;;8.07
78961;BMP280;68362;45.970;12.646;2024-03-17T03:38:19;101697.94;;;7.96
78961;BMP280;68362;45.970;12.646;2024-03-17T03:39:20;101692.00;;;8.02
78961;BMP280;68362;45.970;12.646;2024-03-17T03:40:22;101691.69;;;7.97
78961;BMP280;68362;45.970;12.646;2024-03-17T03:41:23;101698.22;;;8.01
78961;BMP280;68362;45.970;12.646;2024-03-17T03:42:25;101684.16;;;8.02
78961;BMP280;68362;45.970;12.646;2024-03-17T03:43:26;101692.41;;;8.14
78961;BMP280;68362;45.970;12.646;2024-03-17T03:44:28;101692.44;;;8.29
78961;BMP280;68362;45.970;12.646;2024-03-17T03:45:29;101692.75;;;7.88
78961;BMP280;68362;45.970;12.646;2024-03-17T03:46:31;101692.28;;;8.07
78961;BMP280;68362;45.970;12.646;2024-03-17T03:47:32;101690.31;;;8.32
78961;BMP280;68362;45.970;12.646;2024-03-17T03:48:33;101702.22;;;8.35
78961;BMP280;68362;45.970;12.646;2024-03-17T03:49:38;101690.38;;;8.24
78961;BMP280;68362;45.970;12.646;2024-03-17T03:50:40;101693.22;;;8.14
78961;BMP280;68362;45.970;12.646;2024-03-17T03:51:41;101698.34;;;8.31
78961;BMP280;68362;45.970;12.646;2024-03-17T03:52:42;101698.72;;;8.28
78961;BMP280;68362;45.970;12.646;2024-03-17T03:53:43;101688.34;;;8.34
78961;BMP280;68362;45.970;12.646;2024-03-17T03:54:44;101687.78;;;8.24
78961;BMP280;68362;45.970;12.646;2024-03-17T03:55:45;101694.63;;;8.25
78961;BMP280;68362;45.970;12.646;2024-03-17T03:56:46;101693.69;;;7.95
78961;BMP280;68362;45.970;12.646;2024-03-17T03:57:47;101696.94;;;8.20
78961;BMP280;68362;45.970;12.646;2024-03-17T03:58:49;101688.97;;;8.36
78961;BMP280;68362;45.970;12.646;2024-03-17T03:59:51;101691.31;;;8.31
78961;BMP280;68362;45.970;12.646;2024-03-17T04:00:51;101688.34;;;8.34
78961;BMP280;68362;45.970;12.646;2024-03-17T04:01:52;101691.31;;;8.31
78961;BMP280;68362;45.970;12.646;2024-03-17T04:02:53;101688.78;;;8.38
78961;BMP280;68362;45.970;12.646;2024-03-17T04:03:55;101686.81;;;8.40
78961;BMP280;68362;45.970;12.646;2024-03-17T04:04:55;101696.28;;;8.41
78961;BMP280;68362;45.970;12.646;2024-03-17T04:06:10;101690.34;;;8.47
78961;BMP280;68362;45.970;12.646;2024-03-17T04:07:11;101694.97;;;8.22
78961;BMP280;68362;45.970;12.646;2024-03-17T04:08:13;101694.78;;;8.23
78961;BMP280;68362;45.970;12.646;2024-03-17T04:09:14;101693.47;;;8.05
78961;BMP280;68362;45.970;12.646;2024-03-17T04:10:15;101700.38;;;8.20
78961;BMP280;68362;45.970;12.646;2024-03-17T04:11:16;101699.38;;;8.21
78961;BMP280;68362;45.970;12.646;2024-03-17T04:12:17;101706.94;;;8.16
78961;BMP280;68362;45.970;12.646;2024-03-17T04:13:19;101698.16;;;7.86
78961;BMP280;68362;45.970;12.646;2024-03-17T04:14:20;101703.72;;;7.83
78961;BMP280;68362;45.970;12.646;2024-03-17T04:15:21;101705.03;;;8.10
78961;BMP280;68362;45.970;12.646;2024-03-17T04:16:22;101710.13;;;8.26
78961;BMP280;68362;45.970;12.646;2024-03-17T04:17:23;101703.28;;;8.03
78961;BMP280;68362;45.970;12.646;2024-03-17T04:18:27;101707.22;;;8.21
78961;BMP280;68362;45.970;12.646;2024-03-17T04:19:31;101705.34;;;8.07
78961;BMP280;68362;45.970;12.646;2024-03-17T04:20:32;101709.59;;;8.08
78961;BMP280;68362;45.970;12.646;2024-03-17T04:21:33;101704.56;;;7.75
78961;BMP280;68362;45.970;12.646;2024-03-17T04:22:34;101708.78;;;8.08
78961;BMP280;68362;45.970;12.646;2024-03-17T04:23:35;101709.66;;;7.69
78961;BMP280;68362;45.970;12.646;2024-03-17T04:24:36;101711.13;;;7.24
78961;BMP280;68362;45.970;12.646;2024-03-17T04:25:39;101706.47;;;6.95
78961;BMP280;68362;45.970;12.646;2024-03-17T04:26:40;101713.31;;;6.88
78961;BMP280;68362;45.970;12.646;2024-03-17T04:27:41;101715.13;;;6.87
78961;BMP280;68362;45.970;12.646;2024-03-17T04:28:42;101709.09;;;6.87
78961;BMP280;68362;45.970;12.646;2024-03-17T04:29:42;101717.56;;;6.81
78961;BMP280;68362;45.970;12.646;2024-03-17T04:30:43;101711.03;;;6.77
78961;BMP280;68362;45.970;12.646;2024-03-17T04:31:45;101714.25;;;7.03
78961;BMP280;68362;45.970;12.646;2024-03-17T04:32:49;101713.91;;;7.31
78961;BMP280;68362;45.970;12.646;2024-03-17T04:33:50;101713.94;;;7.14
78961;BMP280;68362;45.970;12.646;2024-03-17T04:34:52;101719.13;;;7.31
78961;BMP280;68362;45.970;12.646;2024-03-17T04:35:52;101717.69;;;7.59
78961;BMP280;68362;45.970;12.646;2024-03-17T04:36:54;101717.69;;;7.59
78961;BMP280;68362;45.970;12.646;2024-03-17T04:37:54;101726.75;;;7.80
78961;BMP280;68362;45.970;12.646;2024-03-17T04:38:57;101720.72;;;7.79
78961;BMP280;68362;45.970;12.646;2024-03-17T04:39:59;101727.69;;;7.47
78961;BMP280;68362;45.970;12.646;2024-03-17T04:41:00;101723.78;;;7.52
78961;BMP280;68362;45.970;12.646;2024-03-17T04:42:11;101728.75;;;7.78
78961;BMP280;68362;45.970;12.646;2024-03-17T04:43:12;101725.63;;;7.74
78961;BMP280;68362;45.970;12.646;2024-03-17T04:44:13;101723.28;;;7.87
78961;BMP280;68362;45.970;12.646;2024-03-17T04:45:14;101728.06;;;7.75
78961;BMP280;68362;45.970;12.646;2024-03-17T04:46:15;101731.97;;;7.40
78961;BMP280;68362;45.970;12.646;2024-03-17T04:47:16;101729.09;;;7.66
78961;BMP280;68362;45.970;12.646;2024-03-17T04:48:17;101727.34;;;7.90
78961;BMP280;68362;45.970;12.646;2024-03-17T04:49:18;101726.31;;;7.99
78961;BMP280;68362;45.970;12.646;2024-03-17T04:50:19;101732.56;;;7.90
78961;BMP280;68362;45.970;12.646;2024-03-17T04:51:22;101732.91;;;7.95
78961;BMP280;68362;45.970;12.646;2024-03-17T04:52:22;101730.81;;;7.82
78961;BMP280;68362;45.970;12.646;2024-03-17T04:53:24;101732.34;;;7.99
78961;BMP280;68362;45.970;12.646;2024-03-17T04:54:25;101735.03;;;8.14
78961;BMP280;68362;45.970;12.646;2024-03-17T04:55:26;101733.78;;;8.10
78961;BMP280;68362;45.970;12.646;2024-03-17T04:56:27;101737.69;;;8.06
78961;BMP280;68362;45.970;12.646;2024-03-17T04:57:28;101731.31;;;8.09
78961;BMP280;68362;45.970;12.646;2024-03-17T04:58:29;101730.44;;;8.24
78961;BMP280;68362;45.970;12.646;2024-03-17T04:59:33;101739.59;;;8.20
78961;BMP280;68362;45.970;12.646;2024-03-17T05:00:34;101739.59;;;8.20
78961;BMP280;68362;45.970;12.646;2024-03-17T05:01:36;101744.66;;;8.22
78961;BMP280;68362;45.970;12.646;2024-03-17T05:02:37;101743.75;;;8.30
78961;BMP280;68362;45.970;12.646;2024-03-17T05:03:37;101745.41;;;8.31
78961;BMP280;68362;45.970;12.646;2024-03-17T05:04:38;101745.16;;;8.17
78961;BMP280;68362;45.970;12.646;2024-03-17T05:05:40;101748.66;;;8.10
78961;BMP280;68362;45.970;12.646;2024-03-17T05:06:41;101751.69;;;8.21
78961;BMP280;68362;45.970;12.646;2024-03-17T05:07:42;101744.59;;;8.30
78961;BMP280;68362;45.970;12.646;2024-03-17T05:08:43;101747.00;;;8.40
78961;BMP280;68362;45.970;12.646;2024-03-17T05:09:44;101745.53;;;8.06
78961;BMP280;68362;45.970;12.646;2024-03-17T05:10:45;101749.44;;;7.87
78961;BMP280;68362;45.970;12.646;2024-03-17T05:11:46;101752.88;;;7.80
78961;BMP280;68362;45.970;12.646;2024-03-17T05:12:48;101752.03;;;7.87
78961;BMP280;68362;45.970;12.646;2024-03-17T05:13:49;101746.13;;;7.93
78961;BMP280;68362;45.970;12.646;2024-03-17T05:14:50;101748.25;;;7.90
78961;BMP280;68362;45.970;12.646;2024-03-17T05:15:51;101752.59;;;7.74
78961;BMP280;68362;45.970;12.646;2024-03-17T05:16:52;101752.81;;;7.96
78961;BMP280;68362;45.970;12.646;2024-03-17T05:17:53;101764.00;;;8.13
78961;BMP280;68362;45.970;12.646;2024-03-17T05:18:54;101769.00;;;8.22
78961;BMP280;68362;45.970;12.646;2024-03-17T05:19:55;101765.63;;;8.14
78961;BMP280;68362;45.970;12.646;2024-03-17T05:20:59;101762.53;;;8.10
78961;BMP280;68362;45.970;12.646;2024-03-17T05:22:01;101760.34;;;8.22
78961;BMP280;68362;45.970;12.646;2024-03-17T05:23:02;101762.78;;;8.23
78961;BMP280;68362;45.970;12.646;2024-03-17T05:24:03;101762.22;;;8.05
78961;BMP280;68362;45.970;12.646;2024-03-17T05:25:04;101756.22;;;8.05
78961;BMP280;68362;45.970;12.646;2024-03-17T05:26:05;101759.19;;;8.24
78961;BMP280;68362;45.970;12.646;2024-03-17T05:27:07;101761.22;;;8.06
78961;BMP280;68362;45.970;12.646;2024-03-17T05:28:08;101764.59;;;8.23
78961;BMP280;68362;45.970;12.646;2024-03-17T05:29:09;101762.41;;;8.35
78961;BMP280;68362;45.970;12.646;2024-03-17T05:30:11;101764.28;;;8.18
78961;BMP280;68362;45.970;12.646;2024-03-17T05:31:12;101758.63;;;8.06
78961;BMP280;68362;45.970;12.646;2024-03-17T05:32:15;101760.34;;;7.91
78961;BMP280;68362;45.970;12.646;2024-03-17T05:33:17;101762.50;;;7.87
78961;BMP280;68362;45.970;12.646;2024-03-17T05:34:18;101774.28;;;7.83
78961;BMP280;68362;45.970;12.646;2024-03-17T05:35:19;101769.97;;;7.90
78961;BMP280;68362;45.970;12.646;2024-03-17T05:36:20;101770.88;;;7.74
78961;BMP280;68362;45.970;12.646;2024-03-17T05:37:22;101767.97;;;7.61
78961;BMP280;68362;45.970;12.646;2024-03-17T05:38:24;101772.53;;;7.67
78961;BMP280;68362;45.970;12.646;2024-03-17T05:39:25;101774.06;;;7.93
78961;BMP280;68362;45.970;12.646;2024-03-17T05:40:26;101771.91;;;8.05
78961;BMP280;68362;45.970;12.646;2024-03-17T05:41:27;101769.97;;;7.90
78961;BMP280;68362;45.970;12.646;2024-03-17T05:42:29;101768.00;;;8.00
78961;BMP280;68362;45.970;12.646;2024-03-17T05:43:31;101766.19;;;8.01
78961;BMP280;68362;45.970;12.646;2024-03-17T05:44:38;101777.28;;;8.03
78961;BMP280;68362;45.970;12.646;2024-03-17T05:45:54;101775.25;;;8.13
78961;BMP280;68362;45.970;12.646;2024-03-17T05:46:55;101775.84;;;8.00
78961;BMP280;68362;45.970;12.646;2024-03-17T05:47:58;101779.03;;;8.11
78961;BMP280;68362;45.970;12.646;2024-03-17T05:48:59;101768.03;;;7.92
78961;BMP280;68362;45.970;12.646;2024-03-17T05:50:00;101771.16;;;7.88
78961;BMP280;68362;45.970;12.646;2024-03-17T05:51:01;101777.94;;;7.97